sensor_id;sensor_type;location;lat;lon;timestamp;temperature;humidity
15217;DHT22;7711;46.634;14.318;2023-03-13T00:01:51;1.00;99.90
15217;DHT22;7711;46.634;14.318;2023-03-13T00:04:18;1.00;99.90
15217;DHT22;7711;46.634;14.318;2023-03-13T00:06:45;1.10;99.90
15217;DHT22;7711;46.634;14.318;2023-03-13T00:09:14;1.00;99.90
15217;DHT22;7711;46.634;14.318;2023-03-13T00:11:42;0.90;99.90
15217;DHT22;7711;46.634;14.318;2023-03-13T00:14:10;1.00;99.90
15217;DHT22;7711;46.634;14.318;2023-03-13T00:16:37;1.00;99.90
15217;DHT22;7711;46.634;14.318;2023-03-13T00:19:07;0.90;99.90
15217;DHT22;7711;46.634;14.318;2023-03-13T00:21:35;0.80;99.90
15217;DHT22;7711;46.634;14.318;2023-03-13T00:24:03;0.70;99.90
15217;DHT22;7711;46.634;14.318;2023-03-13T00:26:30;0.70;99.90
15217;DHT22;7711;46.634;14.318;2023-03-13T00:28:57;0.70;99.90
15217;DHT22;7711;46.634;14.318;2023-03-13T00:31:26;0.70;99.90
15217;DHT22;7711;46.634;14.318;2023-03-13T00:33:56;0.70;99.90
15217;DHT22;7711;46.634;14.318;2023-03-13T00:36:26;0.70;99.90
15217;DHT22;7711;46.634;14.318;2023-03-13T00:38:54;0.70;99.90
15217;DHT22;7711;46.634;14.318;2023-03-13T00:41:23;0.60;99.90
15217;DHT22;7711;46.634;14.318;2023-03-13T00:43:50;0.50;99.90
15217;DHT22;7711;46.634;14.318;2023-03-13T00:46:19;0.60;99.90
15217;DHT22;7711;46.634;14.318;2023-03-13T00:48:46;0.70;99.90
15217;DHT22;7711;46.634;14.318;2023-03-13T00:51:14;0.70;99.90
15217;DHT22;7711;46.634;14.318;2023-03-13T00:53:43;0.70;99.90
15217;DHT22;7711;46.634;14.318;2023-03-13T00:56:11;0.70;99.90
15217;DHT22;7711;46.634;14.318;2023-03-13T00:58:40;0.70;99.90
15217;DHT22;7711;46.634;14.318;2023-03-13T01:01:09;0.70;99.90
15217;DHT22;7711;46.634;14.318;2023-03-13T01:03:37;0.70;99.90
15217;DHT22;7711;46.634;14.318;2023-03-13T01:06:06;0.60;99.90
15217;DHT22;7711;46.634;14.318;2023-03-13T01:08:34;0.60;99.90
15217;DHT22;7711;46.634;14.318;2023-03-13T01:11:05;0.60;99.90
15217;DHT22;7711;46.634;14.318;2023-03-13T01:13:33;0.50;99.90
15217;DHT22;7711;46.634;14.318;2023-03-13T01:16:02;0.40;99.90
15217;DHT22;7711;46.634;14.318;2023-03-13T01:18:29;0.30;99.90
15217;DHT22;7711;46.634;14.318;2023-03-13T01:20:56;0.30;99.90
15217;DHT22;7711;46.634;14.318;2023-03-13T01:23:23;0.20;99.90
15217;DHT22;7711;46.634;14.318;2023-03-13T01:25:50;0.20;99.90
15217;DHT22;7711;46.634;14.318;2023-03-13T01:28:18;0.10;99.90
15217;DHT22;7711;46.634;14.318;2023-03-13T01:30:45;0.20;99.90
15217;DHT22;7711;46.634;14.318;2023-03-13T01:33:12;0.30;99.90
15217;DHT22;7711;46.634;14.318;2023-03-13T01:35:39;0.30;99.90
15217;DHT22;7711;46.634;14.318;2023-03-13T01:38:06;0.40;99.90
15217;DHT22;7711;46.634;14.318;2023-03-13T01:40:38;0.40;99.90
15217;DHT22;7711;46.634;14.318;2023-03-13T01:43:15;0.50;99.90
15217;DHT22;7711;46.634;14.318;2023-03-13T01:46:02;0.50;99.90
15217;DHT22;7711;46.634;14.318;2023-03-13T01:48:40;0.40;99.90
15217;DHT22;7711;46.634;14.318;2023-03-13T01:51:11;0.40;99.90
15217;DHT22;7711;46.634;14.318;2023-03-13T01:53:41;0.30;99.90
15217;DHT22;7711;46.634;14.318;2023-03-13T01:56:13;0.30;99.90
15217;DHT22;7711;46.634;14.318;2023-03-13T01:58:40;0.30;99.90
15217;DHT22;7711;46.634;14.318;2023-03-13T02:01:09;0.20;99.90
15217;DHT22;7711;46.634;14.318;2023-03-13T02:03:37;0.10;99.90
15217;DHT22;7711;46.634;14.318;2023-03-13T02:06:05;0.10;99.90
15217;DHT22;7711;46.634;14.318;2023-03-13T02:08:36;0.10;99.90
15217;DHT22;7711;46.634;14.318;2023-03-13T02:11:12;0.10;99.90
15217;DHT22;7711;46.634;14.318;2023-03-13T02:13:42;0.00;99.90
15217;DHT22;7711;46.634;14.318;2023-03-13T02:16:11;0.10;99.90
15217;DHT22;7711;46.634;14.318;2023-03-13T02:18:38;0.10;99.90
15217;DHT22;7711;46.634;14.318;2023-03-13T02:21:10;0.10;99.90
15217;DHT22;7711;46.634;14.318;2023-03-13T02:23:47;0.10;99.90
15217;DHT22;7711;46.634;14.318;2023-03-13T02:26:16;0.10;99.90
15217;DHT22;7711;46.634;14.318;2023-03-13T02:28:44;0.10;99.90
15217;DHT22;7711;46.634;14.318;2023-03-13T02:31:11;0.10;99.90
15217;DHT22;7711;46.634;14.318;2023-03-13T02:33:40;0.00;99.90
15217;DHT22;7711;46.634;14.318;2023-03-13T02:36:08;-0.10;99.90
15217;DHT22;7711;46.634;14.318;2023-03-13T02:38:39;-0.10;99.90
15217;DHT22;7711;46.634;14.318;2023-03-13T02:41:07;0.00;99.90
15217;DHT22;7711;46.634;14.318;2023-03-13T02:43:37;-0.10;99.90
15217;DHT22;7711;46.634;14.318;2023-03-13T02:46:07;-0.20;99.90
15217;DHT22;7711;46.634;14.318;2023-03-13T02:48:36;-0.20;99.90
15217;DHT22;7711;46.634;14.318;2023-03-13T02:51:07;-0.30;99.90
15217;DHT22;7711;46.634;14.318;2023-03-13T02:53:36;-0.20;99.90
15217;DHT22;7711;46.634;14.318;2023-03-13T02:56:04;-0.20;99.90
15217;DHT22;7711;46.634;14.318;2023-03-13T02:58:38;-0.30;99.90
15217;DHT22;7711;46.634;14.318;2023-03-13T03:01:06;-0.30;99.90
15217;DHT22;7711;46.634;14.318;2023-03-13T03:03:34;-0.30;99.90
15217;DHT22;7711;46.634;14.318;2023-03-13T03:06:02;-0.40;99.90
15217;DHT22;7711;46.634;14.318;2023-03-13T03:08:29;-0.30;99.90
15217;DHT22;7711;46.634;14.318;2023-03-13T03:10:56;-0.30;99.90
15217;DHT22;7711;46.634;14.318;2023-03-13T03:13:23;-0.40;99.90
15217;DHT22;7711;46.634;14.318;2023-03-13T03:15:51;-0.30;99.90
15217;DHT22;7711;46.634;14.318;2023-03-13T03:18:19;-0.30;99.90
15217;DHT22;7711;46.634;14.318;2023-03-13T03:20:46;-0.30;99.90
15217;DHT22;7711;46.634;14.318;2023-03-13T03:23:13;-0.30;99.90
15217;DHT22;7711;46.634;14.318;2023-03-13T03:25:40;-0.40;99.90
15217;DHT22;7711;46.634;14.318;2023-03-13T03:28:07;-0.30;99.90
15217;DHT22;7711;46.634;14.318;2023-03-13T03:30:34;-0.30;99.90
15217;DHT22;7711;46.634;14.318;2023-03-13T03:33:03;-0.30;99.90
15217;DHT22;7711;46.634;14.318;2023-03-13T03:35:30;-0.30;99.90
15217;DHT22;7711;46.634;14.318;2023-03-13T03:37:58;-0.30;99.90
15217;DHT22;7711;46.634;14.318;2023-03-13T03:40:25;-0.40;99.90
15217;DHT22;7711;46.634;14.318;2023-03-13T03:42:53;-0.40;99.90
15217;DHT22;7711;46.634;14.318;2023-03-13T03:45:20;-0.30;99.90
15217;DHT22;7711;46.634;14.318;2023-03-13T03:47:47;-0.30;99.90
15217;DHT22;7711;46.634;14.318;2023-03-13T03:50:15;-0.30;99.90
15217;DHT22;7711;46.634;14.318;2023-03-13T03:52:42;-0.40;99.90
15217;DHT22;7711;46.634;14.318;2023-03-13T03:55:09;-0.50;99.90
15217;DHT22;7711;46.634;14.318;2023-03-13T03:57:36;-0.50;99.90
15217;DHT22;7711;46.634;14.318;2023-03-13T04:00:04;-0.50;99.90
15217;DHT22;7711;46.634;14.318;2023-03-13T04:02:32;-0.60;99.90
15217;DHT22;7711;46.634;14.318;2023-03-13T04:04:59;-0.50;99.90
15217;DHT22;7711;46.634;14.318;2023-03-13T04:07:28;-0.50;99.90
15217;DHT22;7711;46.634;14.318;2023-03-13T04:09:54;-0.50;99.90
15217;DHT22;7711;46.634;14.318;2023-03-13T04:12:21;-0.40;99.90
15217;DHT22;7711;46.634;14.318;2023-03-13T04:14:49;-0.40;99.90
15217;DHT22;7711;46.634;14.318;2023-03-13T04:17:16;-0.40;99.90
15217;DHT22;7711;46.634;14.318;2023-03-13T04:19:43;-0.40;99.90
15217;DHT22;7711;46.634;14.318;2023-03-13T04:22:09;-0.40;99.90
15217;DHT22;7711;46.634;14.318;2023-03-13T04:24:38;-0.40;99.90
15217;DHT22;7711;46.634;14.318;2023-03-13T04:27:05;-0.40;99.90
15217;DHT22;7711;46.634;14.318;2023-03-13T04:29:32;-0.30;99.90
15217;DHT22;7711;46.634;14.318;2023-03-13T04:31:59;-0.20;99.90
15217;DHT22;7711;46.634;14.318;2023-03-13T04:34:26;-0.10;99.90
15217;DHT22;7711;46.634;14.318;2023-03-13T04:36:53;-0.10;99.90
15217;DHT22;7711;46.634;14.318;2023-03-13T04:39:21;-0.20;99.90
15217;DHT22;7711;46.634;14.318;2023-03-13T04:41:51;-0.20;99.90
15217;DHT22;7711;46.634;14.318;2023-03-13T04:44:19;-0.30;99.90
15217;DHT22;7711;46.634;14.318;2023-03-13T04:46:47;-0.30;99.90
15217;DHT22;7711;46.634;14.318;2023-03-13T04:49:14;-0.30;99.90
15217;DHT22;7711;46.634;14.318;2023-03-13T04:51:41;-0.30;99.90
15217;DHT22;7711;46.634;14.318;2023-03-13T04:54:09;-0.30;99.90
15217;DHT22;7711;46.634;14.318;2023-03-13T04:56:36;-0.40;99.90
15217;DHT22;7711;46.634;14.318;2023-03-13T04:59:04;-0.30;99.90
15217;DHT22;7711;46.634;14.318;2023-03-13T05:01:31;-0.40;99.90
15217;DHT22;7711;46.634;14.318;2023-03-13T05:03:58;-0.40;99.90
15217;DHT22;7711;46.634;14.318;2023-03-13T05:06:25;-0.30;99.90
15217;DHT22;7711;46.634;14.318;2023-03-13T05:08:52;-0.20;99.90
15217;DHT22;7711;46.634;14.318;2023-03-13T05:11:19;-0.20;99.90
15217;DHT22;7711;46.634;14.318;2023-03-13T05:13:46;-0.20;99.90
15217;DHT22;7711;46.634;14.318;2023-03-13T05:16:14;-0.10;99.90
15217;DHT22;7711;46.634;14.318;2023-03-13T05:18:41;-0.10;99.90
15217;DHT22;7711;46.634;14.318;2023-03-13T05:21:09;-0.10;99.90
15217;DHT22;7711;46.634;14.318;2023-03-13T05:23:36;-0.20;99.90
15217;DHT22;7711;46.634;14.318;2023-03-13T05:26:03;-0.20;99.90
15217;DHT22;7711;46.634;14.318;2023-03-13T05:28:30;-0.10;99.90
15217;DHT22;7711;46.634;14.318;2023-03-13T05:30:57;-0.20;99.90
15217;DHT22;7711;46.634;14.318;2023-03-13T05:33:26;-0.30;99.90
15217;DHT22;7711;46.634;14.318;2023-03-13T05:35:53;-0.30;99.90
15217;DHT22;7711;46.634;14.318;2023-03-13T05:38:20;-0.30;99.90
15217;DHT22;7711;46.634;14.318;2023-03-13T05:40:47;-0.30;99.90
15217;DHT22;7711;46.634;14.318;2023-03-13T05:43:14;-0.30;99.90
15217;DHT22;7711;46.634;14.318;2023-03-13T05:45:41;-0.20;99.90
15217;DHT22;7711;46.634;14.318;2023-03-13T05:48:08;-0.20;99.90
15217;DHT22;7711;46.634;14.318;2023-03-13T05:50:36;-0.10;99.90
15217;DHT22;7711;46.634;14.318;2023-03-13T05:53:03;-0.10;99.90
15217;DHT22;7711;46.634;14.318;2023-03-13T05:55:30;-0.10;99.90
15217;DHT22;7711;46.634;14.318;2023-03-13T05:57:57;-0.10;99.90
15217;DHT22;7711;46.634;14.318;2023-03-13T06:00:24;-0.10;99.90
15217;DHT22;7711;46.634;14.318;2023-03-13T06:02:51;0.10;99.90
15217;DHT22;7711;46.634;14.318;2023-03-13T06:05:18;0.20;99.90
15217;DHT22;7711;46.634;14.318;2023-03-13T06:07:48;0.30;99.90
15217;DHT22;7711;46.634;14.318;2023-03-13T06:10:15;0.30;99.90
15217;DHT22;7711;46.634;14.318;2023-03-13T06:12:42;0.30;99.90
15217;DHT22;7711;46.634;14.318;2023-03-13T06:15:10;0.40;99.90
15217;DHT22;7711;46.634;14.318;2023-03-13T06:17:37;0.50;99.90
15217;DHT22;7711;46.634;14.318;2023-03-13T06:20:05;0.50;99.90
15217;DHT22;7711;46.634;14.318;2023-03-13T06:22:32;0.60;99.90
15217;DHT22;7711;46.634;14.318;2023-03-13T06:25:01;0.70;99.90
15217;DHT22;7711;46.634;14.318;2023-03-13T06:27:28;0.50;99.90
15217;DHT22;7711;46.634;14.318;2023-03-13T06:29:55;0.60;99.90
15217;DHT22;7711;46.634;14.318;2023-03-13T06:32:21;0.70;99.90
15217;DHT22;7711;46.634;14.318;2023-03-13T06:34:48;0.70;99.90
15217;DHT22;7711;46.634;14.318;2023-03-13T06:37:16;0.90;99.90
15217;DHT22;7711;46.634;14.318;2023-03-13T06:39:43;0.90;99.90
15217;DHT22;7711;46.634;14.318;2023-03-13T06:42:11;1.00;99.90
15217;DHT22;7711;46.634;14.318;2023-03-13T06:44:38;1.20;99.90
15217;DHT22;7711;46.634;14.318;2023-03-13T06:47:06;1.30;99.90
15217;DHT22;7711;46.634;14.318;2023-03-13T06:49:33;1.20;99.90
15217;DHT22;7711;46.634;14.318;2023-03-13T06:52:00;1.20;99.90
15217;DHT22;7711;46.634;14.318;2023-03-13T06:54:27;1.30;99.90
15217;DHT22;7711;46.634;14.318;2023-03-13T06:56:54;1.30;99.90
15217;DHT22;7711;46.634;14.318;2023-03-13T06:59:22;1.30;99.90
15217;DHT22;7711;46.634;14.318;2023-03-13T07:01:49;1.50;99.90
15217;DHT22;7711;46.634;14.318;2023-03-13T07:04:16;1.50;99.90
15217;DHT22;7711;46.634;14.318;2023-03-13T07:06:44;1.60;99.90
15217;DHT22;7711;46.634;14.318;2023-03-13T07:09:11;1.60;99.90
15217;DHT22;7711;46.634;14.318;2023-03-13T07:11:38;1.80;99.90
15217;DHT22;7711;46.634;14.318;2023-03-13T07:14:05;1.90;99.90
15217;DHT22;7711;46.634;14.318;2023-03-13T07:16:34;2.10;99.90
15217;DHT22;7711;46.634;14.318;2023-03-13T07:19:01;2.20;99.90
15217;DHT22;7711;46.634;14.318;2023-03-13T07:21:27;2.50;99.90
15217;DHT22;7711;46.634;14.318;2023-03-13T07:23:54;2.50;99.90
15217;DHT22;7711;46.634;14.318;2023-03-13T07:26:21;2.80;99.90
15217;DHT22;7711;46.634;14.318;2023-03-13T07:28:48;2.70;99.90
15217;DHT22;7711;46.634;14.318;2023-03-13T07:31:17;2.70;99.90
15217;DHT22;7711;46.634;14.318;2023-03-13T07:33:46;2.70;99.90
15217;DHT22;7711;46.634;14.318;2023-03-13T07:36:14;2.80;99.90
15217;DHT22;7711;46.634;14.318;2023-03-13T07:38:42;2.80;99.90
15217;DHT22;7711;46.634;14.318;2023-03-13T07:41:11;2.90;99.90
15217;DHT22;7711;46.634;14.318;2023-03-13T07:43:38;2.90;99.90
15217;DHT22;7711;46.634;14.318;2023-03-13T07:46:07;3.00;99.90
15217;DHT22;7711;46.634;14.318;2023-03-13T07:48:35;2.90;99.90
15217;DHT22;7711;46.634;14.318;2023-03-13T07:51:05;3.10;99.90
15217;DHT22;7711;46.634;14.318;2023-03-13T07:53:32;3.00;99.90
15217;DHT22;7711;46.634;14.318;2023-03-13T07:56:01;3.20;99.90
15217;DHT22;7711;46.634;14.318;2023-03-13T07:58:29;3.40;99.90
15217;DHT22;7711;46.634;14.318;2023-03-13T08:00:57;3.40;99.90
15217;DHT22;7711;46.634;14.318;2023-03-13T08:03:24;3.40;99.90
15217;DHT22;7711;46.634;14.318;2023-03-13T08:05:58;3.50;99.90
15217;DHT22;7711;46.634;14.318;2023-03-13T08:08:26;3.90;99.90
15217;DHT22;7711;46.634;14.318;2023-03-13T08:10:58;4.20;99.90
15217;DHT22;7711;46.634;14.318;2023-03-13T08:13:26;4.50;99.90
15217;DHT22;7711;46.634;14.318;2023-03-13T08:16:00;4.70;99.90
15217;DHT22;7711;46.634;14.318;2023-03-13T08:18:27;4.70;99.90
15217;DHT22;7711;46.634;14.318;2023-03-13T08:21:00;4.60;99.90
15217;DHT22;7711;46.634;14.318;2023-03-13T08:23:28;4.80;99.90
15217;DHT22;7711;46.634;14.318;2023-03-13T08:25:55;5.10;99.90
15217;DHT22;7711;46.634;14.318;2023-03-13T08:28:26;5.40;99.90
15217;DHT22;7711;46.634;14.318;2023-03-13T08:30:53;5.20;99.90
15217;DHT22;7711;46.634;14.318;2023-03-13T08:33:20;5.20;99.90
15217;DHT22;7711;46.634;14.318;2023-03-13T08:35:47;5.20;99.90
15217;DHT22;7711;46.634;14.318;2023-03-13T08:38:14;5.40;99.90
15217;DHT22;7711;46.634;14.318;2023-03-13T08:40:43;5.10;99.90
15217;DHT22;7711;46.634;14.318;2023-03-13T08:43:10;5.20;99.90
15217;DHT22;7711;46.634;14.318;2023-03-13T08:45:37;5.20;99.90
15217;DHT22;7711;46.634;14.318;2023-03-13T08:48:04;5.10;99.90
15217;DHT22;7711;46.634;14.318;2023-03-13T08:50:31;5.20;99.90
15217;DHT22;7711;46.634;14.318;2023-03-13T08:52:58;5.40;99.90
15217;DHT22;7711;46.634;14.318;2023-03-13T08:55:25;5.40;99.90
15217;DHT22;7711;46.634;14.318;2023-03-13T08:57:53;5.20;99.90
15217;DHT22;7711;46.634;14.318;2023-03-13T09:00:20;5.20;99.90
15217;DHT22;7711;46.634;14.318;2023-03-13T09:02:48;5.30;99.90
15217;DHT22;7711;46.634;14.318;2023-03-13T09:05:15;5.50;99.90
15217;DHT22;7711;46.634;14.318;2023-03-13T09:07:42;5.80;99.90
15217;DHT22;7711;46.634;14.318;2023-03-13T09:10:09;6.10;99.90
15217;DHT22;7711;46.634;14.318;2023-03-13T09:12:36;6.10;99.90
15217;DHT22;7711;46.634;14.318;2023-03-13T09:15:06;5.80;99.90
15217;DHT22;7711;46.634;14.318;2023-03-13T09:17:33;5.80;99.90
15217;DHT22;7711;46.634;14.318;2023-03-13T09:20:00;5.80;99.90
15217;DHT22;7711;46.634;14.318;2023-03-13T09:22:29;5.60;99.90
15217;DHT22;7711;46.634;14.318;2023-03-13T09:24:56;5.70;99.90
15217;DHT22;7711;46.634;14.318;2023-03-13T09:27:23;5.80;99.90
15217;DHT22;7711;46.634;14.318;2023-03-13T09:29:52;5.90;99.90
15217;DHT22;7711;46.634;14.318;2023-03-13T09:32:21;6.00;99.90
15217;DHT22;7711;46.634;14.318;2023-03-13T09:34:48;6.10;99.90
15217;DHT22;7711;46.634;14.318;2023-03-13T09:37:15;6.50;99.90
15217;DHT22;7711;46.634;14.318;2023-03-13T09:39:42;6.40;99.90
15217;DHT22;7711;46.634;14.318;2023-03-13T09:42:14;6.50;99.90
15217;DHT22;7711;46.634;14.318;2023-03-13T09:44:44;6.80;99.90
15217;DHT22;7711;46.634;14.318;2023-03-13T09:47:17;7.00;99.90
15217;DHT22;7711;46.634;14.318;2023-03-13T09:49:52;7.20;99.90
15217;DHT22;7711;46.634;14.318;2023-03-13T09:52:23;7.30;99.90
15217;DHT22;7711;46.634;14.318;2023-03-13T09:54:53;7.40;99.90
15217;DHT22;7711;46.634;14.318;2023-03-13T09:57:29;7.80;99.90
15217;DHT22;7711;46.634;14.318;2023-03-13T09:59:59;8.10;99.90
15217;DHT22;7711;46.634;14.318;2023-03-13T10:02:31;8.20;99.90
15217;DHT22;7711;46.634;14.318;2023-03-13T10:05:07;8.30;99.90
15217;DHT22;7711;46.634;14.318;2023-03-13T10:07:36;8.30;99.90
15217;DHT22;7711;46.634;14.318;2023-03-13T10:10:09;8.40;99.90
15217;DHT22;7711;46.634;14.318;2023-03-13T10:12:43;8.60;99.90
15217;DHT22;7711;46.634;14.318;2023-03-13T10:15:32;8.80;99.90
15217;DHT22;7711;46.634;14.318;2023-03-13T10:18:11;8.90;99.90
15217;DHT22;7711;46.634;14.318;2023-03-13T10:20:42;9.10;99.90
15217;DHT22;7711;46.634;14.318;2023-03-13T10:23:15;9.30;99.90
15217;DHT22;7711;46.634;14.318;2023-03-13T10:25:44;9.20;99.90
15217;DHT22;7711;46.634;14.318;2023-03-13T10:28:13;9.30;99.90
15217;DHT22;7711;46.634;14.318;2023-03-13T10:30:45;9.40;99.90
15217;DHT22;7711;46.634;14.318;2023-03-13T10:33:21;9.60;99.90
15217;DHT22;7711;46.634;14.318;2023-03-13T10:36:02;10.00;99.90
15217;DHT22;7711;46.634;14.318;2023-03-13T10:38:33;9.90;99.90
15217;DHT22;7711;46.634;14.318;2023-03-13T10:41:04;10.10;99.90
15217;DHT22;7711;46.634;14.318;2023-03-13T10:43:33;10.10;99.90
15217;DHT22;7711;46.634;14.318;2023-03-13T10:46:01;10.40;99.90
15217;DHT22;7711;46.634;14.318;2023-03-13T10:48:30;10.70;99.90
15217;DHT22;7711;46.634;14.318;2023-03-13T10:51:03;11.30;99.90
15217;DHT22;7711;46.634;14.318;2023-03-13T10:53:45;10.60;99.90
15217;DHT22;7711;46.634;14.318;2023-03-13T10:56:14;10.20;99.90
15217;DHT22;7711;46.634;14.318;2023-03-13T10:58:44;10.40;99.90
15217;DHT22;7711;46.634;14.318;2023-03-13T11:01:17;10.50;99.90
15217;DHT22;7711;46.634;14.318;2023-03-13T11:03:47;10.90;99.90
15217;DHT22;7711;46.634;14.318;2023-03-13T11:06:30;11.30;99.90
15217;DHT22;7711;46.634;14.318;2023-03-13T11:09:12;11.60;99.90
15217;DHT22;7711;46.634;14.318;2023-03-13T11:11:44;11.40;99.90
15217;DHT22;7711;46.634;14.318;2023-03-13T11:14:16;11.80;99.90
15217;DHT22;7711;46.634;14.318;2023-03-13T11:16:48;11.90;99.90
15217;DHT22;7711;46.634;14.318;2023-03-13T11:19:38;12.50;99.90
15217;DHT22;7711;46.634;14.318;2023-03-13T11:22:23;12.90;99.90
15217;DHT22;7711;46.634;14.318;2023-03-13T11:24:59;13.00;99.90
15217;DHT22;7711;46.634;14.318;2023-03-13T11:27:32;13.00;99.90
15217;DHT22;7711;46.634;14.318;2023-03-13T11:30:12;12.60;99.90
15217;DHT22;7711;46.634;14.318;2023-03-13T11:32:43;13.10;99.90
15217;DHT22;7711;46.634;14.318;2023-03-13T11:35:20;13.60;99.90
15217;DHT22;7711;46.634;14.318;2023-03-13T11:37:51;13.70;99.90
15217;DHT22;7711;46.634;14.318;2023-03-13T11:40:24;13.30;99.90
15217;DHT22;7711;46.634;14.318;2023-03-13T11:43:09;13.80;99.90
15217;DHT22;7711;46.634;14.318;2023-03-13T11:46:07;13.40;99.90
15217;DHT22;7711;46.634;14.318;2023-03-13T11:48:50;13.60;99.90
15217;DHT22;7711;46.634;14.318;2023-03-13T11:51:26;14.20;99.90
15217;DHT22;7711;46.634;14.318;2023-03-13T11:54:16;14.20;99.90
15217;DHT22;7711;46.634;14.318;2023-03-13T11:56:53;14.30;99.90
15217;DHT22;7711;46.634;14.318;2023-03-13T11:59:30;14.80;99.90
15217;DHT22;7711;46.634;14.318;2023-03-13T12:02:01;14.90;99.90
15217;DHT22;7711;46.634;14.318;2023-03-13T12:04:34;15.20;99.90
15217;DHT22;7711;46.634;14.318;2023-03-13T12:07:05;14.50;99.90
15217;DHT22;7711;46.634;14.318;2023-03-13T12:09:41;14.20;99.90
15217;DHT22;7711;46.634;14.318;2023-03-13T12:12:16;14.50;99.90
15217;DHT22;7711;46.634;14.318;2023-03-13T12:14:47;14.60;99.90
15217;DHT22;7711;46.634;14.318;2023-03-13T12:17:25;14.60;99.90
15217;DHT22;7711;46.634;14.318;2023-03-13T12:20:00;14.60;99.90
15217;DHT22;7711;46.634;14.318;2023-03-13T12:22:35;14.50;99.90
15217;DHT22;7711;46.634;14.318;2023-03-13T12:25:11;14.50;99.90
15217;DHT22;7711;46.634;14.318;2023-03-13T12:27:42;14.40;99.90
15217;DHT22;7711;46.634;14.318;2023-03-13T12:30:19;14.80;99.90
15217;DHT22;7711;46.634;14.318;2023-03-13T12:32:55;14.80;99.90
15217;DHT22;7711;46.634;14.318;2023-03-13T12:35:27;14.60;99.90
15217;DHT22;7711;46.634;14.318;2023-03-13T12:38:00;14.80;99.90
15217;DHT22;7711;46.634;14.318;2023-03-13T12:40:32;14.70;99.90
15217;DHT22;7711;46.634;14.318;2023-03-13T12:43:03;15.30;99.90
15217;DHT22;7711;46.634;14.318;2023-03-13T12:45:32;15.80;99.90
15217;DHT22;7711;46.634;14.318;2023-03-13T12:48:35;15.40;99.90
15217;DHT22;7711;46.634;14.318;2023-03-13T12:51:16;15.60;99.90
15217;DHT22;7711;46.634;14.318;2023-03-13T12:54:12;15.40;99.90
15217;DHT22;7711;46.634;14.318;2023-03-13T12:56:51;15.40;99.90
15217;DHT22;7711;46.634;14.318;2023-03-13T12:59:26;15.40;99.90
15217;DHT22;7711;46.634;14.318;2023-03-13T13:01:55;14.90;99.90
15217;DHT22;7711;46.634;14.318;2023-03-13T13:04:26;14.80;99.90
15217;DHT22;7711;46.634;14.318;2023-03-13T13:07:00;15.10;99.90
15217;DHT22;7711;46.634;14.318;2023-03-13T13:09:29;15.80;99.90
15217;DHT22;7711;46.634;14.318;2023-03-13T13:12:00;15.90;99.90
15217;DHT22;7711;46.634;14.318;2023-03-13T13:15:00;16.30;99.90
15217;DHT22;7711;46.634;14.318;2023-03-13T13:17:48;16.30;99.90
15217;DHT22;7711;46.634;14.318;2023-03-13T13:20:31;16.40;99.90
15217;DHT22;7711;46.634;14.318;2023-03-13T13:23:23;16.50;99.90
15217;DHT22;7711;46.634;14.318;2023-03-13T13:25:51;16.60;99.90
15217;DHT22;7711;46.634;14.318;2023-03-13T13:28:32;16.90;99.90
15217;DHT22;7711;46.634;14.318;2023-03-13T13:31:00;17.50;99.90
15217;DHT22;7711;46.634;14.318;2023-03-13T13:33:37;17.80;99.90
15217;DHT22;7711;46.634;14.318;2023-03-13T13:36:30;17.50;99.90
15217;DHT22;7711;46.634;14.318;2023-03-13T13:39:29;17.80;99.90
15217;DHT22;7711;46.634;14.318;2023-03-13T13:41:58;17.20;99.90
15217;DHT22;7711;46.634;14.318;2023-03-13T13:44:28;17.90;99.90
15217;DHT22;7711;46.634;14.318;2023-03-13T13:46:57;17.60;99.90
15217;DHT22;7711;46.634;14.318;2023-03-13T13:49:35;17.70;99.90
15217;DHT22;7711;46.634;14.318;2023-03-13T13:52:37;17.60;99.90
15217;DHT22;7711;46.634;14.318;2023-03-13T13:55:30;16.80;99.90
15217;DHT22;7711;46.634;14.318;2023-03-13T13:58:02;16.70;99.90
15217;DHT22;7711;46.634;14.318;2023-03-13T14:00:39;16.50;99.90
15217;DHT22;7711;46.634;14.318;2023-03-13T14:03:19;16.60;99.90
15217;DHT22;7711;46.634;14.318;2023-03-13T14:05:48;16.00;99.90
15217;DHT22;7711;46.634;14.318;2023-03-13T14:08:20;16.50;99.90
15217;DHT22;7711;46.634;14.318;2023-03-13T14:10:53;17.10;99.90
15217;DHT22;7711;46.634;14.318;2023-03-13T14:13:21;17.80;99.90
15217;DHT22;7711;46.634;14.318;2023-03-13T14:15:51;18.80;98.30
15217;DHT22;7711;46.634;14.318;2023-03-13T14:18:24;19.40;97.60
15217;DHT22;7711;46.634;14.318;2023-03-13T14:20:56;19.40;95.70
15217;DHT22;7711;46.634;14.318;2023-03-13T14:23:35;19.80;94.40
15217;DHT22;7711;46.634;14.318;2023-03-13T14:26:13;20.20;93.30
15217;DHT22;7711;46.634;14.318;2023-03-13T14:28:44;20.20;92.90
15217;DHT22;7711;46.634;14.318;2023-03-13T14:31:23;20.60;92.90
15217;DHT22;7711;46.634;14.318;2023-03-13T14:33:50;21.40;89.10
15217;DHT22;7711;46.634;14.318;2023-03-13T14:36:17;21.80;87.00
15217;DHT22;7711;46.634;14.318;2023-03-13T14:38:52;21.70;84.40
15217;DHT22;7711;46.634;14.318;2023-03-13T14:41:22;21.60;82.40
15217;DHT22;7711;46.634;14.318;2023-03-13T14:43:50;21.50;82.90
15217;DHT22;7711;46.634;14.318;2023-03-13T14:46:26;21.80;80.30
15217;DHT22;7711;46.634;14.318;2023-03-13T14:48:55;21.50;79.00
15217;DHT22;7711;46.634;14.318;2023-03-13T14:51:24;21.20;77.30
15217;DHT22;7711;46.634;14.318;2023-03-13T14:53:55;21.10;77.80
15217;DHT22;7711;46.634;14.318;2023-03-13T14:56:31;21.50;79.70
15217;DHT22;7711;46.634;14.318;2023-03-13T14:59:06;20.90;74.30
15217;DHT22;7711;46.634;14.318;2023-03-13T15:01:35;21.70;76.70
15217;DHT22;7711;46.634;14.318;2023-03-13T15:04:02;22.10;74.90
15217;DHT22;7711;46.634;14.318;2023-03-13T15:06:29;22.10;74.00
15217;DHT22;7711;46.634;14.318;2023-03-13T15:09:17;21.40;73.70
15217;DHT22;7711;46.634;14.318;2023-03-13T15:11:54;21.70;73.20
15217;DHT22;7711;46.634;14.318;2023-03-13T15:14:35;21.70;71.90
15217;DHT22;7711;46.634;14.318;2023-03-13T15:17:13;21.30;67.50
15217;DHT22;7711;46.634;14.318;2023-03-13T15:19:40;22.80;68.10
15217;DHT22;7711;46.634;14.318;2023-03-13T15:22:11;21.70;65.10
15217;DHT22;7711;46.634;14.318;2023-03-13T15:24:39;22.10;68.00
15217;DHT22;7711;46.634;14.318;2023-03-13T15:27:14;21.70;67.30
15217;DHT22;7711;46.634;14.318;2023-03-13T15:29:41;22.20;66.10
15217;DHT22;7711;46.634;14.318;2023-03-13T15:32:13;22.30;63.80
15217;DHT22;7711;46.634;14.318;2023-03-13T15:34:42;22.00;66.10
15217;DHT22;7711;46.634;14.318;2023-03-13T15:37:11;21.30;62.60
15217;DHT22;7711;46.634;14.318;2023-03-13T15:39:38;21.00;61.60
15217;DHT22;7711;46.634;14.318;2023-03-13T15:42:06;20.30;64.80
15217;DHT22;7711;46.634;14.318;2023-03-13T15:44:33;19.80;67.20
15217;DHT22;7711;46.634;14.318;2023-03-13T15:47:00;19.30;68.40
15217;DHT22;7711;46.634;14.318;2023-03-13T15:49:29;19.10;69.80
15217;DHT22;7711;46.634;14.318;2023-03-13T15:51:56;18.80;73.10
15217;DHT22;7711;46.634;14.318;2023-03-13T15:54:23;18.50;72.80
15217;DHT22;7711;46.634;14.318;2023-03-13T15:56:51;18.40;73.00
15217;DHT22;7711;46.634;14.318;2023-03-13T15:59:18;18.10;73.80